createdAt,value
2019-06-26T00:04:01.486Z,95576.66
2019-06-26T00:09:06.088Z,95585.06
2019-06-26T00:14:08.007Z,95583.54
2019-06-26T00:19:09.830Z,95595.52
2019-06-26T00:24:11.697Z,95606.28
2019-06-26T00:29:13.583Z,95606.55
2019-06-26T00:34:15.447Z,95606.83
2019-06-26T00:39:17.372Z,95600.76
2019-06-26T00:44:19.126Z,95596.16
2019-06-26T00:49:20.987Z,95597.71
2019-06-26T00:54:22.806Z,95599.97
2019-06-26T00:59:24.647Z,95597.11
2019-06-26T01:04:31.219Z,95604.67
2019-06-26T01:09:33.056Z,95591.48
2019-06-26T01:14:34.875Z,95592.38
2019-06-26T01:19:37.332Z,95590.25
2019-06-26T01:24:39.114Z,95592.91
2019-06-26T01:29:40.968Z,95595.86
2019-06-26T01:34:42.815Z,95592.92
2019-06-26T01:39:44.627Z,95591.16
2019-06-26T01:44:46.469Z,95594.45
2019-06-26T01:49:48.275Z,95589.66
2019-06-26T01:54:50.108Z,95612.66
2019-06-26T01:59:51.983Z,95603.58
2019-06-26T02:04:53.895Z,95604.45
2019-06-26T02:09:55.728Z,95604.26
2019-06-26T02:14:57.568Z,95608.41
2019-06-26T02:19:59.370Z,95604.78
2019-06-26T02:25:01.227Z,95610.34
2019-06-26T02:30:05.367Z,95603.77
2019-06-26T02:35:09.669Z,95602.45
2019-06-26T02:40:11.617Z,95593.58
2019-06-26T02:45:13.960Z,95605.21
2019-06-26T02:50:15.962Z,95598.65
2019-06-26T02:55:17.810Z,95603.26
2019-06-26T03:00:19.668Z,95610.34
2019-06-26T03:05:21.446Z,95605.80
2019-06-26T03:10:23.527Z,95617.02
2019-06-26T03:15:25.319Z,95620.41
2019-06-26T03:20:30.794Z,95618.47
2019-06-26T03:25:32.614Z,95620.41
2019-06-26T03:30:34.487Z,95609.54
2019-06-26T03:35:36.275Z,95611.65
2019-06-26T03:40:38.135Z,95615.70
2019-06-26T03:45:39.913Z,95619.14
2019-06-26T03:50:41.750Z,95636.67
2019-06-26T03:55:43.550Z,95620.52
2019-06-26T04:00:46.646Z,95622.73
2019-06-26T04:05:48.529Z,95635.11
2019-06-26T04:10:50.374Z,95624.53
2019-06-26T04:15:52.239Z,95632.67
2019-06-26T04:20:54.078Z,95643.59
2019-06-26T04:25:55.869Z,95637.91
2019-06-26T04:30:57.695Z,95635.44
2019-06-26T04:35:59.567Z,95635.03
2019-06-26T04:41:01.361Z,95648.94
2019-06-26T04:46:03.375Z,95651.20
2019-06-26T04:51:05.177Z,95651.50
2019-06-26T04:56:07.009Z,95652.89
2019-06-26T05:01:08.828Z,95647.85
2019-06-26T05:06:10.677Z,95651.45
2019-06-26T05:11:13.046Z,95648.66
2019-06-26T05:16:19.249Z,95656.96
2019-06-26T05:21:18.879Z,95654.39
2019-06-26T05:26:20.856Z,95652.39
2019-06-26T05:31:22.671Z,95658.37
2019-06-26T05:36:24.570Z,95667.04
2019-06-26T05:41:26.491Z,95674.95
2019-06-26T05:46:31.463Z,95678.09
2019-06-26T05:51:32.228Z,95676.80
2019-06-26T05:56:34.163Z,95677.11
2019-06-26T06:01:36.120Z,95672.97
2019-06-26T06:06:42.136Z,95675.00
2019-06-26T06:11:41.743Z,95675.60
2019-06-26T06:16:47.689Z,95685.77
2019-06-26T06:21:47.262Z,95689.06
2019-06-26T06:26:49.208Z,95679.48
2019-06-26T06:31:51.048Z,95683.53
2019-06-26T06:36:52.829Z,95673.75
2019-06-26T06:41:54.683Z,95683.45
2019-06-26T06:47:03.913Z,95680.60
2019-06-26T06:52:00.330Z,95691.94
2019-06-26T06:57:02.257Z,95698.92
2019-06-26T07:02:05.657Z,95704.06
2019-06-26T07:07:07.495Z,95715.41
2019-06-26T07:12:09.424Z,95708.20
2019-06-26T07:17:20.539Z,95720.75
2019-06-26T07:22:15.246Z,95720.38
2019-06-26T07:27:17.333Z,95712.13
2019-06-26T07:32:19.365Z,95710.74
2019-06-26T07:37:21.245Z,95713.07
2019-06-26T07:42:23.197Z,95713.83
2019-06-26T07:47:41.497Z,95720.45
2019-06-26T07:52:28.800Z,95726.25
2019-06-26T07:57:30.720Z,95719.68
2019-06-26T08:02:32.633Z,95707.14
2019-06-26T08:07:34.603Z,95717.69
2019-06-26T08:12:36.564Z,95719.18
2019-06-26T08:17:38.353Z,95715.88
2019-06-26T08:22:40.267Z,95722.16
2019-06-26T08:27:42.134Z,95721.72
2019-06-26T08:32:44.194Z,95726.28
2019-06-26T08:37:46.168Z,95713.88
2019-06-26T08:42:47.997Z,95714.05
2019-06-26T08:47:49.936Z,95730.69
2019-06-26T08:52:51.936Z,95737.94
2019-06-26T08:57:53.949Z,95734.69
2019-06-26T09:02:55.823Z,95741.52
2019-06-26T09:07:58.091Z,95749.20
2019-06-26T09:13:00.085Z,95746.25
2019-06-26T09:18:01.972Z,95748.28
2019-06-26T09:23:03.946Z,95745.53
2019-06-26T09:28:05.862Z,95744.06
2019-06-26T09:33:07.758Z,95740.23
2019-06-26T09:38:09.748Z,95741.72
2019-06-26T09:43:11.733Z,95739.15
2019-06-26T09:48:13.602Z,95735.16
2019-06-26T09:53:15.491Z,95733.69
2019-06-26T09:58:17.347Z,95736.44
2019-06-26T10:03:19.190Z,95730.38
2019-06-26T10:08:21.027Z,95727.31
2019-06-26T10:13:23.045Z,95724.45
2019-06-26T10:18:24.859Z,95712.03
2019-06-26T10:23:26.880Z,95711.47
2019-06-26T10:28:28.831Z,95695.66
2019-06-26T10:33:30.690Z,95697.40
2019-06-26T10:38:32.488Z,95694.77
2019-06-26T10:43:34.563Z,95691.03
2019-06-26T10:48:36.419Z,95688.09
2019-06-26T10:53:39.544Z,95685.19
2019-06-26T10:58:41.337Z,95680.28
2019-06-26T11:03:43.279Z,95669.39
2019-06-26T11:08:45.818Z,95680.34
2019-06-26T11:13:47.995Z,95666.20
2019-06-26T11:18:50.064Z,95661.28
2019-06-26T11:23:51.970Z,95659.94
2019-06-26T11:28:53.924Z,95663.82
2019-06-26T11:33:55.791Z,95652.51
2019-06-26T11:38:57.713Z,95639.17
2019-06-26T11:43:59.588Z,95647.13
2019-06-26T11:49:01.518Z,95638.63
2019-06-26T11:54:03.580Z,95629.55
2019-06-26T11:59:05.299Z,95636.56
2019-06-26T12:04:07.488Z,95629.20
2019-06-26T12:09:09.163Z,95628.70
2019-06-26T12:14:11.135Z,95631.12
2019-06-26T12:19:13.116Z,95622.38
2019-06-26T12:24:14.957Z,95623.05
2019-06-26T12:29:17.371Z,95623.05
2019-06-26T12:34:19.274Z,95620.03
2019-06-26T12:39:21.277Z,95620.91
2019-06-26T12:44:24.660Z,95613.23
2019-06-26T12:49:26.790Z,95608.21
2019-06-26T12:54:29.042Z,95608.36
2019-06-26T12:59:36.413Z,95596.44
2019-06-26T13:04:38.614Z,95596.82
2019-06-26T13:09:40.568Z,95587.67
2019-06-26T13:14:42.604Z,95587.05
2019-06-26T13:19:44.796Z,95578.49
2019-06-26T13:24:47.994Z,95572.82
2019-06-26T13:29:50.516Z,95560.48
2019-06-26T13:34:52.945Z,95570.76
2019-06-26T13:39:54.796Z,95580.59
2019-06-26T13:44:57.700Z,95561.86
2019-06-26T13:49:59.788Z,95572.87
2019-06-26T13:55:01.544Z,95558.09
2019-06-26T14:00:06.858Z,95553.38
2019-06-26T14:05:09.240Z,95560.57
2019-06-26T14:10:11.344Z,95545.57
2019-06-26T14:15:13.355Z,95544.35
2019-06-26T14:20:17.330Z,95539.10
2019-06-26T14:25:19.175Z,95545.86
2019-06-26T14:30:21.651Z,95549.87
2019-06-26T14:35:23.623Z,95541.52
2019-06-26T14:40:25.622Z,95539.22
2019-06-26T14:45:27.575Z,95521.81
2019-06-26T14:50:29.391Z,95532.25
2019-06-26T14:55:31.271Z,95529.63
2019-06-26T15:00:33.446Z,95536.22
2019-06-26T15:05:36.338Z,95526.96
2019-06-26T15:10:38.309Z,95526.86
2019-06-26T15:15:40.483Z,95529.45
2019-06-26T15:20:42.656Z,95535.69
2019-06-26T15:25:44.415Z,95534.55
2019-06-26T15:30:46.370Z,95518.14
2019-06-26T15:35:48.335Z,95506.39
2019-06-26T15:40:50.251Z,95518.31
2019-06-26T15:45:52.114Z,95512.78
2019-06-26T15:50:55.603Z,95514.35
2019-06-26T15:55:57.418Z,95523.25
2019-06-26T16:00:59.357Z,95494.42
2019-06-26T16:06:01.249Z,95496.67
2019-06-26T16:11:03.173Z,95513.81
2019-06-26T16:16:05.032Z,95534.02
2019-06-26T16:21:08.083Z,95554.19
2019-06-26T16:26:09.970Z,95566.66
2019-06-26T16:31:11.808Z,95547.86
2019-06-26T16:36:13.672Z,95544.09
2019-06-26T16:41:15.504Z,95504.67
2019-06-26T16:46:17.391Z,95505.22
2019-06-26T16:51:19.227Z,95534.89
2019-06-26T16:56:21.144Z,95519.21
2019-06-26T17:01:22.998Z,95519.54
2019-06-26T17:06:25.135Z,95517.69
2019-06-26T17:11:26.942Z,95494.06
2019-06-26T17:16:28.808Z,95506.64
2019-06-26T17:21:30.641Z,95510.72
2019-06-26T17:26:32.483Z,95526.90
2019-06-26T17:31:34.323Z,95498.66
2019-06-26T17:36:36.323Z,95507.52
2019-06-26T17:41:39.199Z,95484.82
2019-06-26T17:46:41.158Z,95490.59
2019-06-26T17:51:43.079Z,95487.09
2019-06-26T17:56:45.017Z,95489.98
2019-06-26T18:01:46.882Z,95481.86
2019-06-26T18:06:48.825Z,95479.27
2019-06-26T18:11:50.659Z,95476.34
2019-06-26T18:16:52.560Z,95478.51
2019-06-26T18:21:54.444Z,95504.84
2019-06-26T18:42:23.721Z,95554.08
2019-06-26T18:47:25.844Z,95549.23
2019-06-26T18:52:27.831Z,95544.94
2019-06-26T18:57:29.916Z,95546.86
2019-06-26T19:02:31.773Z,95561.50
2019-06-26T19:07:35.818Z,95558.91
2019-06-26T19:12:38.120Z,95567.97
2019-06-26T19:17:42.552Z,95565.03
2019-06-26T19:22:47.458Z,95558.59
2019-06-26T19:27:50.279Z,95555.84
2019-06-26T19:32:52.667Z,95572.52
2019-06-26T19:37:56.636Z,95573.98
2019-06-26T19:42:59.828Z,95575.73
2019-06-26T19:48:02.024Z,95578.37
2019-06-26T19:53:04.858Z,95572.55
2019-06-26T19:58:07.144Z,95574.43
2019-06-26T20:08:54.707Z,95582.80
2019-06-26T20:13:54.995Z,95582.63
2019-06-26T20:18:56.500Z,95583.02
2019-06-26T20:23:59.289Z,95575.06
2019-06-26T20:29:02.047Z,95571.40
2019-06-26T20:34:05.197Z,95572.06
2019-06-26T20:39:06.827Z,95568.19
2019-06-26T20:44:10.027Z,95569.81
2019-06-26T20:49:12.518Z,95565.77
2019-06-26T20:54:14.260Z,95566.05
2019-06-26T20:59:15.943Z,95570.39
2019-06-26T21:04:17.731Z,95574.77
2019-06-26T21:09:19.475Z,95580.95
2019-06-26T21:14:21.013Z,95568.86
2019-06-26T21:19:22.361Z,95562.12
2019-06-26T21:24:23.634Z,95561.18
2019-06-26T21:29:25.190Z,95559.12
2019-06-26T21:34:26.539Z,95557.22
2019-06-26T21:39:27.923Z,95564.34
2019-06-26T21:44:29.632Z,95564.14
2019-06-26T21:49:31.108Z,95569.28
2019-06-26T21:54:32.836Z,95562.21
2019-06-26T21:59:53.208Z,95562.20
2019-06-26T22:05:13.996Z,95558.31
2019-06-26T22:10:29.541Z,95552.81
2019-06-26T22:15:31.723Z,95555.38
2019-06-26T22:20:33.666Z,95555.06
2019-06-26T22:25:49.898Z,95547.44
2019-06-26T22:30:39.510Z,95545.78
2019-06-26T22:35:41.672Z,95535.53
2019-06-26T22:40:43.500Z,95527.03
2019-06-26T22:45:45.379Z,95534.72
2019-06-26T22:50:47.229Z,95527.84
2019-06-26T22:55:49.180Z,95529.11
2019-06-26T23:00:51.016Z,95521.88
2019-06-26T23:05:52.923Z,95520.61
2019-06-26T23:10:54.776Z,95515.61
2019-06-26T23:15:56.609Z,95512.41
2019-06-26T23:20:58.474Z,95510.02
2019-06-26T23:26:00.294Z,95510.23
2019-06-26T23:31:02.305Z,95515.44
2019-06-26T23:36:05.288Z,95519.73
2019-06-26T23:41:07.115Z,95519.48
2019-06-26T23:46:08.983Z,95518.53
2019-06-26T23:51:10.948Z,95516.72
2019-06-26T23:56:12.814Z,95515.22
